Kealia, Hawaii
Current Conditions -  °F | °C
As of 7:06 PM on Saturday 25 Oct 2014 (Local Time) from PHLI Reporting Station
Broken Clouds Broken Clouds  
Wind Chill: 79°   Ceiling: 2200
Heat Index: 82°   Visibility: 10mi
Dew Point: 72°   Wind: 9mph
Humidity: 78%   Direction: 60°ENE
Pressure: 30.02"   Gusts: NA
Location:  22.09°N, 159.44°W
Report Text: PHLI 260506Z 06008KT 10SM BKN022 26/22 A3002 RMK AO2
Loading
Personal Weather Stations






























Interactive Weather Map
Tropical Storm Tracking
New forecast layout! Learn more

10-Day Weather Forecast

Advertisements
Track Severe Weather on mobile